Hiva Oa II — FL2189 — position and weather

sailwx.info

Track history (hours):
 
Tides and Currents Weather Stations Pressure Air Temp Water Temp Dewpoint Dewpoint Depression Visibility Wind Speed Wind Dir Waves Ship Positions

Hiva Oa II

Last reported at 2017-Aug-24 08:01 UTC. Time now 2017-Nov-18 21:40 UTC.
Position N 49°43' W 001°17'.
Warning: this ship's position is months out of date.

Length 10 m.

Type: Pleasure craft. MMSI: 227249410.

Date/timePositionNaut miles runAvg speedWind from/ knotsBaromVisibWave heightAir tempDewpointWater temp
2017-Aug-24 08:01N 49°43' W 001°17'0 9.1
2017-Aug-24 08:00N 49°44' W 001°17'5 9.7
2017-Aug-24 07:31N 49°45' W 001°25'5 9.2
2017-Aug-24 07:00N 49°42' W 001°31'3 7.0
2017-Aug-24 06:30N 49°40' W 001°36'2 3.9
2017-Aug-24 06:00N 49°39' W 001°37'0 0.0
2017-Aug-24 05:30N 49°39' W 001°37'0 0.0
2017-Aug-24 05:00N 49°39' W 001°37'0 0.0
2017-Aug-24 04:27N 49°39' W 001°37'0 0.0
2017-Aug-24 03:57N 49°39' W 001°37'0 0.0
2017-Aug-24 03:30N 49°39' W 001°37'0 0.0
2017-Aug-24 02:57N 49°39' W 001°37'0 0.0
2017-Aug-24 02:27N 49°39' W 001°37'0 0.0
2017-Aug-24 01:57N 49°39' W 001°37'0 0.0
2017-Aug-24 01:30N 49°39' W 001°37'0 0.0
2017-Aug-24 01:00N 49°39' W 001°37'0 0.0
2017-Aug-24 00:30N 49°39' W 001°37'0 0.0
2017-Aug-23 23:57N 49°39' W 001°37'0 0.0
2017-Aug-23 23:30N 49°39' W 001°37'0 0.0
2017-Aug-23 22:57N 49°39' W 001°37'0 0.0
2017-Aug-23 22:27N 49°39' W 001°37'0 0.0
2017-Aug-23 22:00N 49°39' W 001°37'0 0.0
2017-Aug-23 21:27N 49°39' W 001°37'0 0.0
2017-Aug-23 21:00N 49°39' W 001°37'0 0.0
2017-Aug-23 20:30N 49°39' W 001°37'0 0.0
2017-Aug-23 19:57N 49°39' W 001°37'0 0.0
2017-Aug-23 19:27N 49°39' W 001°37'0 0.0
2017-Aug-23 19:00N 49°39' W 001°37'0 0.0
2017-Aug-23 18:27N 49°39' W 001°37'0 0.0
2017-Aug-23 17:57N 49°39' W 001°37'0 0.0
2017-Aug-23 17:30N 49°39' W 001°37'0 0.0
2017-Aug-23 16:57N 49°39' W 001°37'0 0.0
2017-Aug-23 16:30N 49°39' W 001°37'0 0.0
2017-Aug-23 15:57N 49°39' W 001°37'0 0.0
2017-Aug-23 15:30N 49°39' W 001°37'0 0.0
2017-Aug-23 14:57N 49°39' W 001°37'0 0.0
2017-Aug-23 14:30N 49°39' W 001°37'0 0.0
2017-Aug-23 13:27N 49°39' W 001°37'0 0.0
2017-Aug-23 12:57N 49°39' W 001°37'0 0.0
2017-Aug-23 12:30N 49°39' W 001°37'0 0.0
2017-Aug-23 11:57N 49°39' W 001°37'0 0.0
2017-Aug-23 11:30N 49°39' W 001°37'0 0.0
2017-Aug-23 10:59N 49°39' W 001°37'1 2.1
2017-Aug-23 10:30N 49°40' W 001°38'2 4.9
2017-Aug-23 10:00N 49°41' W 001°41'3 6.1
2017-Aug-23 09:30N 49°43' W 001°44'20 7.7
2017-Aug-23 06:52N 49°38' W 002°14'4 9.0
2017-Aug-23 06:24N 49°35' W 002°19'3 7.8
2017-Aug-23 05:59N 49°33' W 002°23'5 6.3
2017-Aug-23 05:07N 49°29' W 002°29'1 6.2
2017-Aug-23 04:59N 49°29' W 002°30'2 0.2
2017-Aug-22 18:48N 49°27' W 002°32'1 4.4
2017-Aug-22 18:30N 49°26' W 002°31'  
2017-Aug-20 11:31N 48°35' W 004°46'4 7.2
2017-Aug-20 11:01N 48°32' W 004°49'3 5.9
2017-Aug-20 10:31N 48°29' W 004°50'2 4.9
2017-Aug-20 10:00N 48°27' W 004°50'5 4.8
2017-Aug-20 08:58N 48°22' W 004°49'3 3.8
2017-Aug-20 08:10N 48°19' W 004°47'1 4.5
2017-Aug-20 08:00N 48°19' W 004°46'3 5.5
2017-Aug-20 07:31N 48°18' W 004°42'3 5.8
2017-Aug-20 07:00N 48°18' W 004°38'2 3.7
2017-Aug-20 06:30N 48°17' W 004°35'0 0.1
2017-Aug-20 06:00N 48°17' W 004°35'0 0.0
2017-Aug-20 05:31N 48°17' W 004°35'0 0.0
2017-Aug-20 05:01N 48°17' W 004°35'0 0.0
2017-Aug-20 04:31N 48°17' W 004°35'0 0.0
2017-Aug-20 04:01N 48°17' W 004°35'0 0.0
2017-Aug-20 03:30N 48°17' W 004°35'0 0.0
2017-Aug-20 03:00N 48°17' W 004°35'0 0.0
2017-Aug-20 02:30N 48°17' W 004°35'0 0.0
2017-Aug-20 02:01N 48°17' W 004°35'0 0.0
2017-Aug-20 01:30N 48°17' W 004°35'0 0.0
2017-Aug-20 01:00N 48°17' W 004°35'0 0.0
2017-Aug-20 00:31N 48°17' W 004°35'0 0.0
2017-Aug-20 00:00N 48°17' W 004°35'0 0.0
2017-Aug-19 23:27N 48°17' W 004°35'0 0.0
2017-Aug-19 23:00N 48°17' W 004°35'0 0.0
2017-Aug-19 22:30N 48°17' W 004°35'0 0.0
2017-Aug-19 22:00N 48°17' W 004°35'0 0.0
2017-Aug-19 21:30N 48°17' W 004°35'0 0.0
2017-Aug-19 21:00N 48°17' W 004°35'0 0.0
2017-Aug-19 20:30N 48°17' W 004°35'0 0.0
2017-Aug-19 20:00N 48°17' W 004°35'0 0.0
2017-Aug-19 19:30N 48°17' W 004°35'0 0.0
2017-Aug-19 19:00N 48°17' W 004°35'0 0.0
2017-Aug-19 18:31N 48°17' W 004°35'0 0.0
2017-Aug-19 18:00N 48°17' W 004°35'0 0.0
2017-Aug-19 17:30N 48°17' W 004°35'0 0.0
2017-Aug-19 17:01N 48°17' W 004°35'0 0.0
2017-Aug-19 16:31N 48°17' W 004°35'0 0.0
2017-Aug-19 16:00N 48°17' W 004°35'0 0.0
2017-Aug-19 15:31N 48°17' W 004°35'0 0.0
2017-Aug-19 15:00N 48°17' W 004°35'0 0.0
2017-Aug-19 14:00N 48°17' W 004°35'0 0.0
2017-Aug-19 13:30N 48°17' W 004°35'0 0.0
2017-Aug-19 13:00N 48°17' W 004°35'0 0.0
2017-Aug-19 12:31N 48°17' W 004°35'0 0.0
2017-Aug-19 12:00N 48°17' W 004°35'0 0.0
2017-Aug-19 11:31N 48°17' W 004°35'1 1.3
2017-Aug-19 11:00N 48°17' W 004°36'2 4.6
2017-Aug-19 10:30N 48°16' W 004°39'2 4.4
2017-Aug-19 10:00N 48°14' W 004°40'2 4.1
2017-Aug-19 09:30N 48°13' W 004°42'2 4.4
2017-Aug-19 09:00N 48°10' W 004°43'2 4.4
2017-Aug-19 08:30N 48°08' W 004°43'2 4.6
2017-Aug-19 08:01N 48°06' W 004°45'2 4.7
2017-Aug-19 07:30N 48°04' W 004°46'2 4.7
2017-Aug-19 07:00N 48°02' W 004°45'53 1.1
2017-Aug-17 08:18N 47°42' W 003°31'1 4.0
2017-Aug-17 08:00N 47°41' W 003°30'3 5.5
2017-Aug-17 07:30N 47°41' W 003°26'2 4.0
2017-Aug-17 07:00N 47°41' W 003°23'2 3.9
2017-Aug-17 06:30N 47°43' W 003°22'0 0.2
2017-Aug-17 05:59N 47°43' W 003°22'0 0.0
2017-Aug-17 05:29N 47°43' W 003°22'0 0.0
2017-Aug-17 04:59N 47°43' W 003°22'0 0.0
2017-Aug-17 04:28N 47°43' W 003°22'0 0.0
2017-Aug-17 03:59N 47°43' W 003°22'0 0.0
2017-Aug-17 03:29N 47°43' W 003°22'0 0.0
2017-Aug-17 02:59N 47°43' W 003°22'0 0.0
2017-Aug-17 02:29N 47°43' W 003°22'0 0.0
2017-Aug-17 01:58N 47°43' W 003°22'0 0.0
2017-Aug-17 01:29N 47°43' W 003°22'0 0.0
2017-Aug-17 00:59N 47°43' W 003°22'0 0.0
2017-Aug-17 00:28N 47°43' W 003°22'0 0.0
2017-Aug-16 23:59N 47°43' W 003°22'0 0.0
2017-Aug-16 23:29N 47°43' W 003°22'0 0.0
2017-Aug-16 22:58N 47°43' W 003°22'0 0.0
2017-Aug-16 22:29N 47°43' W 003°22'0 0.0
2017-Aug-16 21:58N 47°43' W 003°22'0 0.0
2017-Aug-16 21:29N 47°43' W 003°22'0 0.0
2017-Aug-16 20:59N 47°43' W 003°22'0 0.0
2017-Aug-16 20:29N 47°43' W 003°22'0 0.0
2017-Aug-16 19:59N 47°43' W 003°22'0 0.0
2017-Aug-16 19:29N 47°43' W 003°22'0 0.0
2017-Aug-16 18:58N 47°43' W 003°22'0 0.0
2017-Aug-16 18:29N 47°43' W 003°22'0 0.0
2017-Aug-16 17:59N 47°43' W 003°22'0 0.0
2017-Aug-16 17:28N 47°43' W 003°22'0 0.0
2017-Aug-16 16:59N 47°43' W 003°22'0 0.0
2017-Aug-16 16:28N 47°43' W 003°22'0 0.0
2017-Aug-16 15:59N 47°43' W 003°22'0 0.0
2017-Aug-16 15:29N 47°43' W 003°22'0 0.0
2017-Aug-16 14:59N 47°43' W 003°22'0 0.0
2017-Aug-16 14:29N 47°43' W 003°22'0 0.0
2017-Aug-16 13:58N 47°43' W 003°22'0 0.0
2017-Aug-16 13:28N 47°43' W 003°22'0 0.0
2017-Aug-16 12:58N 47°43' W 003°22'0 0.0
2017-Aug-16 12:28N 47°43' W 003°22'0 0.0
2017-Aug-16 11:58N 47°43' W 003°22'0 0.0
2017-Aug-16 11:28N 47°43' W 003°22'0 0.0
2017-Aug-16 10:58N 47°43' W 003°22'0 0.0
2017-Aug-16 10:28N 47°43' W 003°22'0 0.0
2017-Aug-16 09:58N 47°43' W 003°22'0 0.0
2017-Aug-16 09:28N 47°43' W 003°22'0 0.0
2017-Aug-16 08:58N 47°43' W 003°22'0 0.0
2017-Aug-16 08:28N 47°43' W 003°22'0 0.0
2017-Aug-16 07:58N 47°43' W 003°22'0 0.0
2017-Aug-16 07:28N 47°43' W 003°22'0 0.0
2017-Aug-16 06:58N 47°43' W 003°22'0 0.0
2017-Aug-16 06:28N 47°43' W 003°22'0 0.0
2017-Aug-16 05:58N 47°43' W 003°22'0 0.0
2017-Aug-16 05:28N 47°43' W 003°22'0 0.0
2017-Aug-16 04:58N 47°43' W 003°22'0 0.0
2017-Aug-16 04:28N 47°43' W 003°22'0 0.0
2017-Aug-16 03:58N 47°43' W 003°22'0 0.0
2017-Aug-16 03:28N 47°43' W 003°22'0 0.0
2017-Aug-16 02:58N 47°43' W 003°22'0 0.0
2017-Aug-16 02:28N 47°43' W 003°22'0 0.0
2017-Aug-16 01:58N 47°43' W 003°22'0 0.0
2017-Aug-16 01:28N 47°43' W 003°22'0 0.0
2017-Aug-16 00:58N 47°43' W 003°22'0 0.0
2017-Aug-16 00:28N 47°43' W 003°22'0 0.0
2017-Aug-15 23:58N 47°43' W 003°22'0 0.0
2017-Aug-15 23:28N 47°43' W 003°22'0 0.0
2017-Aug-15 22:58N 47°43' W 003°22'0 0.0
2017-Aug-15 22:28N 47°43' W 003°22'0 0.0
2017-Aug-15 21:58N 47°43' W 003°22'0 0.0
2017-Aug-15 21:28N 47°43' W 003°22'0 0.0
2017-Aug-15 20:58N 47°43' W 003°22'0 0.0
2017-Aug-15 20:28N 47°43' W 003°22'0 0.0
2017-Aug-15 19:58N 47°43' W 003°22'0 0.0
2017-Aug-15 19:28N 47°43' W 003°22'0 0.0
2017-Aug-15 18:58N 47°43' W 003°22'0 0.0
2017-Aug-15 18:28N 47°43' W 003°22'0 0.0
2017-Aug-15 17:58N 47°43' W 003°22'0 0.0
2017-Aug-15 17:28N 47°43' W 003°22'0 0.0
2017-Aug-15 16:58N 47°43' W 003°22'0 0.0
2017-Aug-15 16:28N 47°43' W 003°22'0 0.0
2017-Aug-15 15:58N 47°43' W 003°22'0 0.0
2017-Aug-15 15:28N 47°43' W 003°22'0 0.0
2017-Aug-15 14:58N 47°43' W 003°22'0 0.0
2017-Aug-15 14:28N 47°43' W 003°22'0 0.0
2017-Aug-15 13:58N 47°43' W 003°22'0 0.0
2017-Aug-15 13:28N 47°43' W 003°22'0 0.0
2017-Aug-15 12:58N 47°43' W 003°22'0 0.0
2017-Aug-15 12:28N 47°43' W 003°22'0 0.0
2017-Aug-15 11:58N 47°43' W 003°22'0 0.0
2017-Aug-15 11:28N 47°43' W 003°22'0 0.0
2017-Aug-15 10:58N 47°43' W 003°22'0 0.0
2017-Aug-15 10:28N 47°43' W 003°22'0 0.0
2017-Aug-15 09:58N 47°43' W 003°22'0 0.0
2017-Aug-15 09:28N 47°43' W 003°22'0 0.0
2017-Aug-15 08:58N 47°43' W 003°22'0 0.0
2017-Aug-15 08:28N 47°43' W 003°22'0 0.0
2017-Aug-15 07:58N 47°43' W 003°22'0 0.0
2017-Aug-15 07:28N 47°43' W 003°22'0 0.0
2017-Aug-15 06:58N 47°43' W 003°22'0 0.0
2017-Aug-15 06:28N 47°43' W 003°22'0 0.0
2017-Aug-15 05:58N 47°43' W 003°22'0 0.0
2017-Aug-15 05:28N 47°43' W 003°22'0 0.0
2017-Aug-15 04:58N 47°43' W 003°22'0 0.0
2017-Aug-15 04:28N 47°43' W 003°22'0 0.0
2017-Aug-15 03:58N 47°43' W 003°22'0 0.0
2017-Aug-15 03:28N 47°43' W 003°22'0 0.0
2017-Aug-15 02:58N 47°43' W 003°22'0 0.0
2017-Aug-15 02:28N 47°43' W 003°22'0 0.0
2017-Aug-15 01:58N 47°43' W 003°22'0 0.0
2017-Aug-15 01:28N 47°43' W 003°22'0 0.0
2017-Aug-15 00:58N 47°43' W 003°22'0 0.0
2017-Aug-15 00:28N 47°43' W 003°22'0 0.0
2017-Aug-14 23:58N 47°43' W 003°22'0 0.0
2017-Aug-14 23:28N 47°43' W 003°22'0 0.0
2017-Aug-14 22:58N 47°43' W 003°22'0 0.0
2017-Aug-14 22:28N 47°43' W 003°22'0 0.0
2017-Aug-14 21:58N 47°43' W 003°22'0 0.0
2017-Aug-14 21:28N 47°43' W 003°22'0 0.0
2017-Aug-14 20:58N 47°43' W 003°22'0 0.0
2017-Aug-14 20:28N 47°43' W 003°22'0 0.0
2017-Aug-14 19:58N 47°43' W 003°22'0 0.0
2017-Aug-14 19:28N 47°43' W 003°22'0 0.0
2017-Aug-14 18:58N 47°43' W 003°22'0 0.0
2017-Aug-14 18:28N 47°43' W 003°22'0 0.0
2017-Aug-14 17:58N 47°43' W 003°22'0 0.0
2017-Aug-14 17:28N 47°43' W 003°22'0 0.0
2017-Aug-14 16:58N 47°43' W 003°22'0 0.0
2017-Aug-14 16:28N 47°43' W 003°22'0 0.0
2017-Aug-14 15:58N 47°43' W 003°22'0 0.0
2017-Aug-14 15:28N 47°43' W 003°22'0 0.0
2017-Aug-14 14:58N 47°43' W 003°22'0 0.0
2017-Aug-14 14:28N 47°43' W 003°22'0 0.0
2017-Aug-14 13:58N 47°43' W 003°22'0 0.0
2017-Aug-14 13:28N 47°43' W 003°22'0 0.0
2017-Aug-14 12:58N 47°43' W 003°22'0 0.0
2017-Aug-14 12:28N 47°43' W 003°22'0 0.0
2017-Aug-14 11:58N 47°43' W 003°22'0 0.0
2017-Aug-14 11:28N 47°43' W 003°22'0 0.0
2017-Aug-14 10:58N 47°43' W 003°22'0 0.0
2017-Aug-14 10:28N 47°43' W 003°22'0 0.0
2017-Aug-14 09:58N 47°43' W 003°22'0 0.0
2017-Aug-14 09:28N 47°43' W 003°22'0 0.0
2017-Aug-14 08:58N 47°43' W 003°22'0 0.3
2017-Aug-14 08:28N 47°43' W 003°22'  
Track history (hours):
 
Tides and Currents Weather Stations Pressure Air Temp Water Temp Dewpoint Dewpoint Depression Visibility Wind Speed Wind Dir Waves Ship Positions

Hiva Oa II

Last reported at 2017-Aug-24 08:01 UTC. Time now 2017-Nov-18 21:40 UTC.
Position N 49°43' W 001°17'.
Warning: this ship's position is months out of date.

Length 10 m.

Type: Pleasure craft. MMSI: 227249410.

Date/timePositionNaut miles runAvg speedWind from/ knotsBaromVisibWave heightAir tempDewpointWater temp
2017-Aug-24 08:01N 49°43' W 001°17'0 9.1
2017-Aug-24 08:00N 49°44' W 001°17'5 9.7
2017-Aug-24 07:31N 49°45' W 001°25'5 9.2
2017-Aug-24 07:00N 49°42' W 001°31'3 7.0
2017-Aug-24 06:30N 49°40' W 001°36'2 3.9
2017-Aug-24 06:00N 49°39' W 001°37'0 0.0
2017-Aug-24 05:30N 49°39' W 001°37'0 0.0
2017-Aug-24 05:00N 49°39' W 001°37'0 0.0
2017-Aug-24 04:27N 49°39' W 001°37'0 0.0
2017-Aug-24 03:57N 49°39' W 001°37'0 0.0
2017-Aug-24 03:30N 49°39' W 001°37'0 0.0
2017-Aug-24 02:57N 49°39' W 001°37'0 0.0
2017-Aug-24 02:27N 49°39' W 001°37'0 0.0
2017-Aug-24 01:57N 49°39' W 001°37'0 0.0
2017-Aug-24 01:30N 49°39' W 001°37'0 0.0
2017-Aug-24 01:00N 49°39' W 001°37'0 0.0
2017-Aug-24 00:30N 49°39' W 001°37'0 0.0
2017-Aug-23 23:57N 49°39' W 001°37'0 0.0
2017-Aug-23 23:30N 49°39' W 001°37'0 0.0
2017-Aug-23 22:57N 49°39' W 001°37'0 0.0
2017-Aug-23 22:27N 49°39' W 001°37'0 0.0
2017-Aug-23 22:00N 49°39' W 001°37'0 0.0
2017-Aug-23 21:27N 49°39' W 001°37'0 0.0
2017-Aug-23 21:00N 49°39' W 001°37'0 0.0
2017-Aug-23 20:30N 49°39' W 001°37'0 0.0
2017-Aug-23 19:57N 49°39' W 001°37'0 0.0
2017-Aug-23 19:27N 49°39' W 001°37'0 0.0
2017-Aug-23 19:00N 49°39' W 001°37'0 0.0
2017-Aug-23 18:27N 49°39' W 001°37'0 0.0
2017-Aug-23 17:57N 49°39' W 001°37'0 0.0
2017-Aug-23 17:30N 49°39' W 001°37'0 0.0
2017-Aug-23 16:57N 49°39' W 001°37'0 0.0
2017-Aug-23 16:30N 49°39' W 001°37'0 0.0
2017-Aug-23 15:57N 49°39' W 001°37'0 0.0
2017-Aug-23 15:30N 49°39' W 001°37'0 0.0
2017-Aug-23 14:57N 49°39' W 001°37'0 0.0
2017-Aug-23 14:30N 49°39' W 001°37'0 0.0
2017-Aug-23 13:27N 49°39' W 001°37'0 0.0
2017-Aug-23 12:57N 49°39' W 001°37'0 0.0
2017-Aug-23 12:30N 49°39' W 001°37'0 0.0
2017-Aug-23 11:57N 49°39' W 001°37'0 0.0
2017-Aug-23 11:30N 49°39' W 001°37'0 0.0
2017-Aug-23 10:59N 49°39' W 001°37'1 2.1
2017-Aug-23 10:30N 49°40' W 001°38'2 4.9
2017-Aug-23 10:00N 49°41' W 001°41'3 6.1
2017-Aug-23 09:30N 49°43' W 001°44'20 7.7
2017-Aug-23 06:52N 49°38' W 002°14'4 9.0
2017-Aug-23 06:24N 49°35' W 002°19'3 7.8
2017-Aug-23 05:59N 49°33' W 002°23'5 6.3
2017-Aug-23 05:07N 49°29' W 002°29'1 6.2
2017-Aug-23 04:59N 49°29' W 002°30'2 0.2
2017-Aug-22 18:48N 49°27' W 002°32'1 4.4
2017-Aug-22 18:30N 49°26' W 002°31'  
2017-Aug-20 11:31N 48°35' W 004°46'4 7.2
2017-Aug-20 11:01N 48°32' W 004°49'3 5.9
2017-Aug-20 10:31N 48°29' W 004°50'2 4.9
2017-Aug-20 10:00N 48°27' W 004°50'5 4.8
2017-Aug-20 08:58N 48°22' W 004°49'3 3.8
2017-Aug-20 08:10N 48°19' W 004°47'1 4.5
2017-Aug-20 08:00N 48°19' W 004°46'3 5.5
2017-Aug-20 07:31N 48°18' W 004°42'3 5.8
2017-Aug-20 07:00N 48°18' W 004°38'2 3.7
2017-Aug-20 06:30N 48°17' W 004°35'0 0.1
2017-Aug-20 06:00N 48°17' W 004°35'0 0.0
2017-Aug-20 05:31N 48°17' W 004°35'0 0.0
2017-Aug-20 05:01N 48°17' W 004°35'0 0.0
2017-Aug-20 04:31N 48°17' W 004°35'0 0.0
2017-Aug-20 04:01N 48°17' W 004°35'0 0.0
2017-Aug-20 03:30N 48°17' W 004°35'0 0.0
2017-Aug-20 03:00N 48°17' W 004°35'0 0.0
2017-Aug-20 02:30N 48°17' W 004°35'0 0.0
2017-Aug-20 02:01N 48°17' W 004°35'0 0.0
2017-Aug-20 01:30N 48°17' W 004°35'0 0.0
2017-Aug-20 01:00N 48°17' W 004°35'0 0.0
2017-Aug-20 00:31N 48°17' W 004°35'0 0.0
2017-Aug-20 00:00N 48°17' W 004°35'0 0.0
2017-Aug-19 23:27N 48°17' W 004°35'0 0.0
2017-Aug-19 23:00N 48°17' W 004°35'0 0.0
2017-Aug-19 22:30N 48°17' W 004°35'0 0.0
2017-Aug-19 22:00N 48°17' W 004°35'0 0.0
2017-Aug-19 21:30N 48°17' W 004°35'0 0.0
2017-Aug-19 21:00N 48°17' W 004°35'0 0.0
2017-Aug-19 20:30N 48°17' W 004°35'0 0.0
2017-Aug-19 20:00N 48°17' W 004°35'0 0.0
2017-Aug-19 19:30N 48°17' W 004°35'0 0.0
2017-Aug-19 19:00N 48°17' W 004°35'0 0.0
2017-Aug-19 18:31N 48°17' W 004°35'0 0.0
2017-Aug-19 18:00N 48°17' W 004°35'0 0.0
2017-Aug-19 17:30N 48°17' W 004°35'0 0.0
2017-Aug-19 17:01N 48°17' W 004°35'0 0.0
2017-Aug-19 16:31N 48°17' W 004°35'0 0.0
2017-Aug-19 16:00N 48°17' W 004°35'0 0.0
2017-Aug-19 15:31N 48°17' W 004°35'0 0.0
2017-Aug-19 15:00N 48°17' W 004°35'0 0.0
2017-Aug-19 14:00N 48°17' W 004°35'0 0.0
2017-Aug-19 13:30N 48°17' W 004°35'0 0.0
2017-Aug-19 13:00N 48°17' W 004°35'0 0.0
2017-Aug-19 12:31N 48°17' W 004°35'0 0.0
2017-Aug-19 12:00N 48°17' W 004°35'0 0.0
2017-Aug-19 11:31N 48°17' W 004°35'1 1.3
2017-Aug-19 11:00N 48°17' W 004°36'2 4.6
2017-Aug-19 10:30N 48°16' W 004°39'2 4.4
2017-Aug-19 10:00N 48°14' W 004°40'2 4.1
2017-Aug-19 09:30N 48°13' W 004°42'2 4.4
2017-Aug-19 09:00N 48°10' W 004°43'2 4.4
2017-Aug-19 08:30N 48°08' W 004°43'2 4.6
2017-Aug-19 08:01N 48°06' W 004°45'2 4.7
2017-Aug-19 07:30N 48°04' W 004°46'2 4.7
2017-Aug-19 07:00N 48°02' W 004°45'53 1.1
2017-Aug-17 08:18N 47°42' W 003°31'1 4.0
2017-Aug-17 08:00N 47°41' W 003°30'3 5.5
2017-Aug-17 07:30N 47°41' W 003°26'2 4.0
2017-Aug-17 07:00N 47°41' W 003°23'2 3.9
2017-Aug-17 06:30N 47°43' W 003°22'0 0.2
2017-Aug-17 05:59N 47°43' W 003°22'0 0.0
2017-Aug-17 05:29N 47°43' W 003°22'0 0.0
2017-Aug-17 04:59N 47°43' W 003°22'0 0.0
2017-Aug-17 04:28N 47°43' W 003°22'0 0.0
2017-Aug-17 03:59N 47°43' W 003°22'0 0.0
2017-Aug-17 03:29N 47°43' W 003°22'0 0.0
2017-Aug-17 02:59N 47°43' W 003°22'0 0.0
2017-Aug-17 02:29N 47°43' W 003°22'0 0.0
2017-Aug-17 01:58N 47°43' W 003°22'0 0.0
2017-Aug-17 01:29N 47°43' W 003°22'0 0.0
2017-Aug-17 00:59N 47°43' W 003°22'0 0.0
2017-Aug-17 00:28N 47°43' W 003°22'0 0.0
2017-Aug-16 23:59N 47°43' W 003°22'0 0.0
2017-Aug-16 23:29N 47°43' W 003°22'0 0.0
2017-Aug-16 22:58N 47°43' W 003°22'0 0.0
2017-Aug-16 22:29N 47°43' W 003°22'0 0.0
2017-Aug-16 21:58N 47°43' W 003°22'0 0.0
2017-Aug-16 21:29N 47°43' W 003°22'0 0.0
2017-Aug-16 20:59N 47°43' W 003°22'0 0.0
2017-Aug-16 20:29N 47°43' W 003°22'0 0.0
2017-Aug-16 19:59N 47°43' W 003°22'0 0.0
2017-Aug-16 19:29N 47°43' W 003°22'0 0.0
2017-Aug-16 18:58N 47°43' W 003°22'0 0.0
2017-Aug-16 18:29N 47°43' W 003°22'0 0.0
2017-Aug-16 17:59N 47°43' W 003°22'0 0.0
2017-Aug-16 17:28N 47°43' W 003°22'0 0.0
2017-Aug-16 16:59N 47°43' W 003°22'0 0.0
2017-Aug-16 16:28N 47°43' W 003°22'0 0.0
2017-Aug-16 15:59N 47°43' W 003°22'0 0.0
2017-Aug-16 15:29N 47°43' W 003°22'0 0.0
2017-Aug-16 14:59N 47°43' W 003°22'0 0.0
2017-Aug-16 14:29N 47°43' W 003°22'0 0.0
2017-Aug-16 13:58N 47°43' W 003°22'0 0.0
2017-Aug-16 13:28N 47°43' W 003°22'0 0.0
2017-Aug-16 12:58N 47°43' W 003°22'0 0.0
2017-Aug-16 12:28N 47°43' W 003°22'0 0.0
2017-Aug-16 11:58N 47°43' W 003°22'0 0.0
2017-Aug-16 11:28N 47°43' W 003°22'0 0.0
2017-Aug-16 10:58N 47°43' W 003°22'0 0.0
2017-Aug-16 10:28N 47°43' W 003°22'0 0.0
2017-Aug-16 09:58N 47°43' W 003°22'0 0.0
2017-Aug-16 09:28N 47°43' W 003°22'0 0.0
2017-Aug-16 08:58N 47°43' W 003°22'0 0.0
2017-Aug-16 08:28N 47°43' W 003°22'0 0.0
2017-Aug-16 07:58N 47°43' W 003°22'0 0.0
2017-Aug-16 07:28N 47°43' W 003°22'0 0.0
2017-Aug-16 06:58N 47°43' W 003°22'0 0.0
2017-Aug-16 06:28N 47°43' W 003°22'0 0.0
2017-Aug-16 05:58N 47°43' W 003°22'0 0.0
2017-Aug-16 05:28N 47°43' W 003°22'0 0.0
2017-Aug-16 04:58N 47°43' W 003°22'0 0.0
2017-Aug-16 04:28N 47°43' W 003°22'0 0.0
2017-Aug-16 03:58N 47°43' W 003°22'0 0.0
2017-Aug-16 03:28N 47°43' W 003°22'0 0.0
2017-Aug-16 02:58N 47°43' W 003°22'0 0.0
2017-Aug-16 02:28N 47°43' W 003°22'0 0.0
2017-Aug-16 01:58N 47°43' W 003°22'0 0.0
2017-Aug-16 01:28N 47°43' W 003°22'0 0.0
2017-Aug-16 00:58N 47°43' W 003°22'0 0.0
2017-Aug-16 00:28N 47°43' W 003°22'0 0.0
2017-Aug-15 23:58N 47°43' W 003°22'0 0.0
2017-Aug-15 23:28N 47°43' W 003°22'0 0.0
2017-Aug-15 22:58N 47°43' W 003°22'0 0.0
2017-Aug-15 22:28N 47°43' W 003°22'0 0.0
2017-Aug-15 21:58N 47°43' W 003°22'0 0.0
2017-Aug-15 21:28N 47°43' W 003°22'0 0.0
2017-Aug-15 20:58N 47°43' W 003°22'0 0.0
2017-Aug-15 20:28N 47°43' W 003°22'0 0.0
2017-Aug-15 19:58N 47°43' W 003°22'0 0.0
2017-Aug-15 19:28N 47°43' W 003°22'0 0.0
2017-Aug-15 18:58N 47°43' W 003°22'0 0.0
2017-Aug-15 18:28N 47°43' W 003°22'0 0.0
2017-Aug-15 17:58N 47°43' W 003°22'0 0.0
2017-Aug-15 17:28N 47°43' W 003°22'0 0.0
2017-Aug-15 16:58N 47°43' W 003°22'0 0.0
2017-Aug-15 16:28N 47°43' W 003°22'0 0.0
2017-Aug-15 15:58N 47°43' W 003°22'0 0.0
2017-Aug-15 15:28N 47°43' W 003°22'0 0.0
2017-Aug-15 14:58N 47°43' W 003°22'0 0.0
2017-Aug-15 14:28N 47°43' W 003°22'0 0.0
2017-Aug-15 13:58N 47°43' W 003°22'0 0.0
2017-Aug-15 13:28N 47°43' W 003°22'0 0.0
2017-Aug-15 12:58N 47°43' W 003°22'0 0.0
2017-Aug-15 12:28N 47°43' W 003°22'0 0.0
2017-Aug-15 11:58N 47°43' W 003°22'0 0.0
2017-Aug-15 11:28N 47°43' W 003°22'0 0.0
2017-Aug-15 10:58N 47°43' W 003°22'0 0.0
2017-Aug-15 10:28N 47°43' W 003°22'0 0.0
2017-Aug-15 09:58N 47°43' W 003°22'0 0.0
2017-Aug-15 09:28N 47°43' W 003°22'0 0.0
2017-Aug-15 08:58N 47°43' W 003°22'0 0.0
2017-Aug-15 08:28N 47°43' W 003°22'0 0.0
2017-Aug-15 07:58N 47°43' W 003°22'0 0.0
2017-Aug-15 07:28N 47°43' W 003°22'0 0.0
2017-Aug-15 06:58N 47°43' W 003°22'0 0.0
2017-Aug-15 06:28N 47°43' W 003°22'0 0.0
2017-Aug-15 05:58N 47°43' W 003°22'0 0.0
2017-Aug-15 05:28N 47°43' W 003°22'0 0.0
2017-Aug-15 04:58N 47°43' W 003°22'0 0.0
2017-Aug-15 04:28N 47°43' W 003°22'0 0.0
2017-Aug-15 03:58N 47°43' W 003°22'0 0.0
2017-Aug-15 03:28N 47°43' W 003°22'0 0.0
2017-Aug-15 02:58N 47°43' W 003°22'0 0.0
2017-Aug-15 02:28N 47°43' W 003°22'0 0.0
2017-Aug-15 01:58N 47°43' W 003°22'0 0.0
2017-Aug-15 01:28N 47°43' W 003°22'0 0.0
2017-Aug-15 00:58N 47°43' W 003°22'0 0.0
2017-Aug-15 00:28N 47°43' W 003°22'0 0.0
2017-Aug-14 23:58N 47°43' W 003°22'0 0.0
2017-Aug-14 23:28N 47°43' W 003°22'0 0.0
2017-Aug-14 22:58N 47°43' W 003°22'0 0.0
2017-Aug-14 22:28N 47°43' W 003°22'0 0.0
2017-Aug-14 21:58N 47°43' W 003°22'0 0.0
2017-Aug-14 21:28N 47°43' W 003°22'0 0.0
2017-Aug-14 20:58N 47°43' W 003°22'0 0.0
2017-Aug-14 20:28N 47°43' W 003°22'0 0.0
2017-Aug-14 19:58N 47°43' W 003°22'0 0.0
2017-Aug-14 19:28N 47°43' W 003°22'0 0.0
2017-Aug-14 18:58N 47°43' W 003°22'0 0.0
2017-Aug-14 18:28N 47°43' W 003°22'0 0.0
2017-Aug-14 17:58N 47°43' W 003°22'0 0.0
2017-Aug-14 17:28N 47°43' W 003°22'0 0.0
2017-Aug-14 16:58N 47°43' W 003°22'0 0.0
2017-Aug-14 16:28N 47°43' W 003°22'0 0.0
2017-Aug-14 15:58N 47°43' W 003°22'0 0.0
2017-Aug-14 15:28N 47°43' W 003°22'0 0.0
2017-Aug-14 14:58N 47°43' W 003°22'0 0.0
2017-Aug-14 14:28N 47°43' W 003°22'0 0.0
2017-Aug-14 13:58N 47°43' W 003°22'0 0.0
2017-Aug-14 13:28N 47°43' W 003°22'0 0.0
2017-Aug-14 12:58N 47°43' W 003°22'0 0.0
2017-Aug-14 12:28N 47°43' W 003°22'0 0.0
2017-Aug-14 11:58N 47°43' W 003°22'0 0.0
2017-Aug-14 11:28N 47°43' W 003°22'0 0.0
2017-Aug-14 10:58N 47°43' W 003°22'0 0.0
2017-Aug-14 10:28N 47°43' W 003°22'0 0.0
2017-Aug-14 09:58N 47°43' W 003°22'0 0.0
2017-Aug-14 09:28N 47°43' W 003°22'0 0.0
2017-Aug-14 08:58N 47°43' W 003°22'0 0.3
2017-Aug-14 08:28N 47°43' W 003°22'  

Dump ship's entire track history